Time;durP1;ratioP1;P1;durP2;ratioP2;P2;SDS_P1;SDS_P2;PMS_P1;PMS_P2;Temp;Humidity;BMP_temperature;BMP_pressure;BME280_temperature;BME280_humidity;BME280_pressure;Samples;Min_cycle;Max_cycle;Signal;HPM_P1;HPM_P2
2023/09/30 00:00:37;;;;;;;5.57;0.90;;;;;;;;;;5070857;28;20266;-38
2023/09/30 00:03:03;;;;;;;7.70;1.23;;;;;;;;;;5077305;28;20024;-38
2023/09/30 00:05:28;;;;;;;3.67;0.90;;;;;;;;;;5075828;28;20557;-38
2023/09/30 00:07:53;;;;;;;2.92;0.80;;;;;;;;;;5076659;28;20105;-38
2023/09/30 00:10:19;;;;;;;3.97;0.70;;;;;;;;;;5077986;28;20395;-38
2023/09/30 00:12:45;;;;;;;5.00;1.20;;;;;;;;;;5071048;28;20353;-38
2023/09/30 00:15:11;;;;;;;3.80;1.00;;;;;;;;;;5068479;28;20028;-38
2023/09/30 00:17:36;;;;;;;2.47;0.73;;;;;;;;;;5062978;28;20094;-38
2023/09/30 00:20:03;;;;;;;6.17;1.77;;;;;;;;;;5072869;28;20059;-38
2023/09/30 00:22:29;;;;;;;5.18;1.30;;;;;;;;;;5078502;28;20093;-38
2023/09/30 00:24:54;;;;;;;2.90;1.20;;;;;;;;;;5075649;28;20020;-38
2023/09/30 00:27:19;;;;;;;5.43;1.00;;;;;;;;;;5076007;28;20504;-38
2023/09/30 00:29:45;;;;;;;7.47;1.27;;;;;;;;;;5079073;28;20275;-38
2023/09/30 00:32:10;;;;;;;8.40;1.43;;;;;;;;;;5070592;28;20491;-38
2023/09/30 00:34:35;;;;;;;7.93;1.33;;;;;;;;;;5070701;28;20071;-38
2023/09/30 00:37:01;;;;;;;9.23;1.48;;;;;;;;;;5071467;28;20954;-38
2023/09/30 00:39:29;;;;;;;7.25;1.30;;;;;;;;;;5067503;28;20032;-38
2023/09/30 00:41:55;;;;;;;4.85;1.27;;;;;;;;;;5069007;28;20503;-38
2023/09/30 00:44:20;;;;;;;7.95;2.20;;;;;;;;;;5068723;28;20031;-38
2023/09/30 00:46:45;;;;;;;10.10;1.53;;;;;;;;;;5072090;28;20066;-38
2023/09/30 00:49:13;;;;;;;7.70;1.57;;;;;;;;;;5065457;28;20506;-38
2023/09/30 00:51:39;;;;;;;11.45;1.85;;;;;;;;;;5067876;28;20282;-38
2023/09/30 00:54:05;;;;;;;7.82;1.25;;;;;;;;;;5071856;28;20032;-38
2023/09/30 00:56:32;;;;;;;7.85;1.27;;;;;;;;;;5069607;28;20016;-39
2023/09/30 00:58:57;;;;;;;8.05;1.95;;;;;;;;;;5072626;28;20031;-38
2023/09/30 01:01:23;;;;;;;10.40;1.85;;;;;;;;;;5074316;28;20016;-38
2023/09/30 01:03:49;;;;;;;9.25;1.90;;;;;;;;;;5072245;28;20041;-38
2023/09/30 01:06:14;;;;;;;8.95;2.45;;;;;;;;;;5072024;28;20029;-38
2023/09/30 01:08:39;;;;;;;7.45;1.45;;;;;;;;;;5061995;28;20473;-38
2023/09/30 01:11:05;;;;;;;7.78;2.00;;;;;;;;;;5067712;28;20059;-39
2023/09/30 01:13:34;;;;;;;6.57;1.45;;;;;;;;;;5068887;28;20395;-38
2023/09/30 01:16:03;;;;;;;12.45;2.85;;;;;;;;;;5067331;28;20078;-38
2023/09/30 01:18:28;;;;;;;12.60;2.63;;;;;;;;;;5071414;28;20103;-38
2023/09/30 01:20:54;;;;;;;9.47;1.93;;;;;;;;;;5065102;28;21535;-38
2023/09/30 01:23:19;;;;;;;9.43;2.03;;;;;;;;;;5072294;28;20283;-38
2023/09/30 01:25:45;;;;;;;10.27;2.27;;;;;;;;;;5071567;28;20028;-38
2023/09/30 01:28:10;;;;;;;9.63;1.57;;;;;;;;;;5071946;28;20024;-38
2023/09/30 01:30:35;;;;;;;7.17;2.17;;;;;;;;;;5064596;28;20335;-38
2023/09/30 01:33:01;;;;;;;10.27;2.83;;;;;;;;;;5073369;28;20286;-38
2023/09/30 01:35:27;;;;;;;10.63;2.85;;;;;;;;;;5065259;28;20031;-38
2023/09/30 01:37:52;;;;;;;17.88;2.78;;;;;;;;;;5069134;28;20028;-38
2023/09/30 01:40:18;;;;;;;9.30;1.83;;;;;;;;;;5072042;28;20487;-39
2023/09/30 01:42:43;;;;;;;9.05;2.30;;;;;;;;;;5073364;28;20360;-38
2023/09/30 01:45:10;;;;;;;11.00;3.00;;;;;;;;;;5066768;28;21193;-38
2023/09/30 01:47:35;;;;;;;8.25;2.03;;;;;;;;;;5069643;28;20040;-38
2023/09/30 01:50:00;;;;;;;12.93;2.33;;;;;;;;;;5069562;28;20028;-38
2023/09/30 01:52:26;;;;;;;9.07;1.88;;;;;;;;;;5069579;28;20032;-38
2023/09/30 01:54:51;;;;;;;11.50;2.07;;;;;;;;;;5066930;28;20023;-38
2023/09/30 01:57:17;;;;;;;12.35;2.40;;;;;;;;;;5071823;28;20335;-38
2023/09/30 01:59:42;;;;;;;10.60;2.30;;;;;;;;;;5067920;28;20056;-38
2023/09/30 02:02:08;;;;;;;9.90;1.97;;;;;;;;;;5070307;28;20279;-38
2023/09/30 02:04:33;;;;;;;12.52;2.00;;;;;;;;;;5070895;28;20306;-38
2023/09/30 02:06:58;;;;;;;9.40;2.23;;;;;;;;;;5067839;28;20048;-38
2023/09/30 02:09:24;;;;;;;10.05;2.42;;;;;;;;;;5069181;28;22207;-38
2023/09/30 02:11:49;;;;;;;22.43;4.83;;;;;;;;;;5067022;28;20021;-38
2023/09/30 02:14:14;;;;;;;19.47;5.17;;;;;;;;;;5063794;28;20301;-38
2023/09/30 02:16:39;;;;;;;11.93;2.67;;;;;;;;;;5064872;28;20380;-38
2023/09/30 02:19:06;;;;;;;8.53;3.33;;;;;;;;;;5069288;28;20024;-38
2023/09/30 02:21:31;;;;;;;10.98;2.45;;;;;;;;;;5068390;28;20373;-38
2023/09/30 02:23:56;;;;;;;11.63;2.10;;;;;;;;;;5065469;28;20109;-38
2023/09/30 02:26:25;;;;;;;6.67;1.90;;;;;;;;;;5065781;28;20020;-38
2023/09/30 02:28:50;;;;;;;16.65;4.18;;;;;;;;;;5066501;28;20055;-38
2023/09/30 02:31:17;;;;;;;9.35;2.95;;;;;;;;;;5069443;28;20028;-38
2023/09/30 02:33:43;;;;;;;11.02;2.45;;;;;;;;;;5065991;28;20029;-38
2023/09/30 02:36:09;;;;;;;4.10;1.30;;;;;;;;;;5070403;28;20119;-38
2023/09/30 02:38:37;;;;;;;12.15;2.25;;;;;;;;;;5075602;28;20098;-38
2023/09/30 02:41:02;;;;;;;13.88;2.20;;;;;;;;;;5067947;28;20034;-38
2023/09/30 02:43:28;;;;;;;16.05;3.85;;;;;;;;;;5069614;28;20037;-38
2023/09/30 02:45:53;;;;;;;10.45;2.55;;;;;;;;;;5065590;28;20028;-38
2023/09/30 02:48:18;;;;;;;9.90;2.42;;;;;;;;;;5070906;28;20393;-38
2023/09/30 02:50:46;;;;;;;14.43;2.80;;;;;;;;;;5066659;28;20024;-38
2023/09/30 02:53:13;;;;;;;12.38;1.83;;;;;;;;;;5071094;28;20020;-38
2023/09/30 02:55:38;;;;;;;16.00;2.35;;;;;;;;;;5069579;28;20078;-38
2023/09/30 02:58:03;;;;;;;13.55;2.67;;;;;;;;;;5071348;28;20024;-38
2023/09/30 03:00:32;;;;;;;23.47;3.10;;;;;;;;;;5074170;28;20047;-38
2023/09/30 03:02:59;;;;;;;14.73;3.42;;;;;;;;;;5070011;28;20106;-38
2023/09/30 03:05:24;;;;;;;17.38;2.65;;;;;;;;;;5070877;28;20028;-38
2023/09/30 03:07:50;;;;;;;14.37;2.90;;;;;;;;;;5077043;28;20047;-38
2023/09/30 03:10:20;;;;;;;10.35;2.65;;;;;;;;;;5078076;28;20325;-38
2023/09/30 03:12:48;;;;;;;13.50;3.42;;;;;;;;;;5065107;28;20024;-38
2023/09/30 03:15:14;;;;;;;12.23;2.75;;;;;;;;;;5073512;28;20162;-38
2023/09/30 03:17:40;;;;;;;15.75;2.40;;;;;;;;;;5071038;28;20564;-38
2023/09/30 03:20:09;;;;;;;11.45;2.08;;;;;;;;;;5072190;28;20786;-38
2023/09/30 03:22:35;;;;;;;12.52;2.95;;;;;;;;;;5069961;28;20025;-38
2023/09/30 03:25:01;;;;;;;18.90;2.47;;;;;;;;;;5074184;28;20036;-38
2023/09/30 03:27:26;;;;;;;15.63;2.15;;;;;;;;;;5075253;28;20039;-38
2023/09/30 03:29:51;;;;;;;11.77;3.93;;;;;;;;;;5071464;28;20036;-39
2023/09/30 03:32:17;;;;;;;14.43;2.22;;;;;;;;;;5072327;28;20064;-39
2023/09/30 03:34:44;;;;;;;10.20;2.60;;;;;;;;;;5071156;28;21128;-38
2023/09/30 03:37:10;;;;;;;13.50;2.80;;;;;;;;;;5069587;28;20387;-38
2023/09/30 03:39:35;;;;;;;20.77;2.40;;;;;;;;;;5073124;28;20474;-38
2023/09/30 03:42:01;;;;;;;17.40;2.73;;;;;;;;;;5073193;28;20274;-39
2023/09/30 03:44:26;;;;;;;12.65;1.98;;;;;;;;;;5070520;28;20369;-38
2023/09/30 03:46:52;;;;;;;13.60;2.80;;;;;;;;;;5072519;28;20028;-38
2023/09/30 03:49:19;;;;;;;12.73;3.05;;;;;;;;;;5070516;28;20289;-38
2023/09/30 03:51:44;;;;;;;13.50;2.85;;;;;;;;;;5071815;28;20059;-39
2023/09/30 03:54:10;;;;;;;10.80;2.63;;;;;;;;;;5072397;28;20233;-38
2023/09/30 03:56:35;;;;;;;15.70;2.67;;;;;;;;;;5070976;28;20274;-38
2023/09/30 03:59:00;;;;;;;11.93;2.83;;;;;;;;;;5070854;28;20360;-38
2023/09/30 04:01:26;;;;;;;13.20;4.10;;;;;;;;;;5066382;28;20750;-38
2023/09/30 04:03:55;;;;;;;12.75;2.10;;;;;;;;;;5070479;28;20292;-38
2023/09/30 04:06:20;;;;;;;14.90;2.30;;;;;;;;;;5071490;28;21088;-38
2023/09/30 04:08:45;;;;;;;17.70;3.20;;;;;;;;;;5070154;28;20031;-38
2023/09/30 04:11:16;;;;;;;12.43;2.47;;;;;;;;;;5071338;28;20290;-38
2023/09/30 04:13:42;;;;;;;13.40;2.38;;;;;;;;;;5076120;28;20331;-38
2023/09/30 04:16:07;;;;;;;16.02;2.53;;;;;;;;;;5068228;28;20029;-38
2023/09/30 04:18:32;;;;;;;13.50;3.77;;;;;;;;;;5071784;28;20023;-38
2023/09/30 04:20:57;;;;;;;16.63;3.63;;;;;;;;;;5066092;28;20362;-38
2023/09/30 04:23:23;;;;;;;14.15;2.70;;;;;;;;;;5070893;28;20043;-37
2023/09/30 04:25:49;;;;;;;23.80;5.60;;;;;;;;;;5069750;28;20061;-38
2023/09/30 04:28:16;;;;;;;13.45;2.58;;;;;;;;;;5065208;28;20373;-38
2023/09/30 04:30:41;;;;;;;7.75;1.73;;;;;;;;;;5068215;28;20058;-38
2023/09/30 04:33:07;;;;;;;12.25;2.40;;;;;;;;;;5071772;28;20135;-38
2023/09/30 04:35:35;;;;;;;11.80;2.53;;;;;;;;;;5071210;28;20039;-37
2023/09/30 04:38:04;;;;;;;12.55;2.65;;;;;;;;;;5069396;28;20024;-38
2023/09/30 04:40:29;;;;;;;14.25;2.25;;;;;;;;;;5071604;28;20505;-38
2023/09/30 04:42:58;;;;;;;13.52;2.28;;;;;;;;;;5073123;28;20058;-38
2023/09/30 04:45:24;;;;;;;11.45;2.58;;;;;;;;;;5070045;28;20056;-38
2023/09/30 04:47:50;;;;;;;10.57;2.10;;;;;;;;;;5067523;28;20046;-38
2023/09/30 04:50:16;;;;;;;16.73;2.80;;;;;;;;;;5065861;28;20484;-38
2023/09/30 04:52:41;;;;;;;13.35;2.67;;;;;;;;;;5064870;28;20020;-38
2023/09/30 04:55:07;;;;;;;15.95;2.72;;;;;;;;;;5067379;28;20098;-38
2023/09/30 04:57:33;;;;;;;16.30;2.53;;;;;;;;;;5065618;28;20485;-38
2023/09/30 04:59:58;;;;;;;14.87;3.17;;;;;;;;;;5071119;28;20020;-37
2023/09/30 05:02:24;;;;;;;14.20;2.25;;;;;;;;;;5070034;28;20290;-37
2023/09/30 05:04:50;;;;;;;14.02;3.33;;;;;;;;;;5067743;28;20036;-37
2023/09/30 05:07:15;;;;;;;12.27;2.72;;;;;;;;;;5069550;28;20376;-38
2023/09/30 05:09:42;;;;;;;18.80;2.97;;;;;;;;;;5068340;28;20024;-38
2023/09/30 05:12:07;;;;;;;17.13;3.03;;;;;;;;;;5068887;28;20046;-37
2023/09/30 05:14:33;;;;;;;14.90;2.95;;;;;;;;;;5070643;28;20103;-38
2023/09/30 05:16:58;;;;;;;21.83;3.10;;;;;;;;;;5067139;28;20109;-37
2023/09/30 05:19:24;;;;;;;12.38;3.35;;;;;;;;;;5069038;28;20036;-38
2023/09/30 05:21:49;;;;;;;10.38;2.17;;;;;;;;;;5064404;28;20023;-38
2023/09/30 05:24:15;;;;;;;9.23;3.37;;;;;;;;;;5067816;28;20028;-37
2023/09/30 05:26:40;;;;;;;16.63;3.03;;;;;;;;;;5070858;28;20335;-38
2023/09/30 05:29:07;;;;;;;13.45;3.97;;;;;;;;;;5071955;28;20474;-37
2023/09/30 05:31:32;;;;;;;7.57;2.20;;;;;;;;;;5074664;28;20020;-38
2023/09/30 05:33:57;;;;;;;16.90;2.83;;;;;;;;;;5070696;28;20023;-38
2023/09/30 05:36:23;;;;;;;17.73;3.63;;;;;;;;;;5069501;28;20029;-37
2023/09/30 05:38:48;;;;;;;19.25;4.15;;;;;;;;;;5068911;28;20278;-38
2023/09/30 05:41:16;;;;;;;13.57;3.80;;;;;;;;;;5070464;28;20124;-37
2023/09/30 05:43:43;;;;;;;11.32;3.05;;;;;;;;;;5071308;28;20632;-37
2023/09/30 05:46:09;;;;;;;15.10;2.65;;;;;;;;;;5067285;28;21957;-38
2023/09/30 05:48:34;;;;;;;10.18;3.28;;;;;;;;;;5067100;28;20024;-37
2023/09/30 05:50:59;;;;;;;12.02;3.80;;;;;;;;;;5067996;28;20019;-37
2023/09/30 05:53:25;;;;;;;14.48;2.83;;;;;;;;;;5068026;28;20012;-38
2023/09/30 05:55:50;;;;;;;22.55;3.03;;;;;;;;;;5069280;28;20301;-37
2023/09/30 05:58:16;;;;;;;18.83;3.00;;;;;;;;;;5071067;28;20021;-37
2023/09/30 06:00:42;;;;;;;20.50;2.92;;;;;;;;;;5074200;28;20493;-37
2023/09/30 06:03:08;;;;;;;15.60;2.47;;;;;;;;;;5068319;28;20027;-37
2023/09/30 06:05:33;;;;;;;11.48;3.05;;;;;;;;;;5065752;28;20068;-37
2023/09/30 06:08:00;;;;;;;12.57;2.83;;;;;;;;;;5069467;28;20495;-37
2023/09/30 06:10:25;;;;;;;12.65;2.75;;;;;;;;;;5071556;28;20111;-38
2023/09/30 06:12:54;;;;;;;13.93;3.00;;;;;;;;;;5070535;28;20027;-38
2023/09/30 06:15:21;;;;;;;10.75;2.90;;;;;;;;;;5064183;28;20029;-38
2023/09/30 06:17:47;;;;;;;20.40;3.10;;;;;;;;;;5065638;28;20020;-38
2023/09/30 06:20:17;;;;;;;11.40;3.00;;;;;;;;;;5061343;28;20017;-38
2023/09/30 06:22:45;;;;;;;16.25;3.38;;;;;;;;;;5070312;28;20032;-38
2023/09/30 06:25:10;;;;;;;13.10;3.05;;;;;;;;;;5066216;28;20024;-38
2023/09/30 06:27:35;;;;;;;12.68;3.65;;;;;;;;;;5069684;28;20077;-37
2023/09/30 06:30:01;;;;;;;12.63;3.50;;;;;;;;;;5066290;28;20020;-37
2023/09/30 06:32:26;;;;;;;14.40;2.75;;;;;;;;;;5073189;28;21149;-37
2023/09/30 06:34:52;;;;;;;20.30;3.77;;;;;;;;;;5056967;28;20024;-37
2023/09/30 06:37:18;;;;;;;14.05;3.97;;;;;;;;;;5068029;28;20270;-38
2023/09/30 06:39:43;;;;;;;12.48;3.45;;;;;;;;;;5074155;28;20031;-37
2023/09/30 06:42:09;;;;;;;16.92;5.38;;;;;;;;;;5070763;28;20705;-38
2023/09/30 06:44:34;;;;;;;18.80;3.45;;;;;;;;;;5070001;28;20030;-38
2023/09/30 06:47:00;;;;;;;14.63;4.10;;;;;;;;;;5064505;28;20028;-38
2023/09/30 06:49:25;;;;;;;12.05;3.50;;;;;;;;;;5073995;28;20343;-38
2023/09/30 06:51:50;;;;;;;17.10;4.30;;;;;;;;;;5070623;28;20482;-38
2023/09/30 06:54:15;;;;;;;14.50;3.40;;;;;;;;;;5073222;28;20274;-38
2023/09/30 06:56:41;;;;;;;14.87;4.03;;;;;;;;;;5071656;28;20054;-38
2023/09/30 06:59:06;;;;;;;13.18;3.80;;;;;;;;;;5073960;28;20677;-38
2023/09/30 07:01:32;;;;;;;7.15;2.13;;;;;;;;;;5078443;28;20032;-38
2023/09/30 07:03:57;;;;;;;15.65;3.42;;;;;;;;;;5074133;28;20032;-37
2023/09/30 07:06:23;;;;;;;14.98;4.38;;;;;;;;;;5063888;28;20470;-38
2023/09/30 07:08:49;;;;;;;11.80;4.00;;;;;;;;;;5073710;28;20708;-38
2023/09/30 07:11:14;;;;;;;17.17;4.13;;;;;;;;;;5075743;28;20484;-38
2023/09/30 07:13:39;;;;;;;12.23;3.10;;;;;;;;;;5077311;28;20036;-37
2023/09/30 07:16:05;;;;;;;12.40;3.10;;;;;;;;;;5059857;28;20509;-38
2023/09/30 07:18:31;;;;;;;17.10;3.58;;;;;;;;;;5076191;28;20016;-38
2023/09/30 07:20:56;;;;;;;15.67;3.43;;;;;;;;;;5071352;28;20034;-38
2023/09/30 07:23:22;;;;;;;14.47;2.97;;;;;;;;;;5075871;28;20649;-37
2023/09/30 07:25:47;;;;;;;12.02;3.17;;;;;;;;;;5074077;28;20274;-39
2023/09/30 07:28:13;;;;;;;9.55;2.58;;;;;;;;;;5074874;28;20028;-37
2023/09/30 07:30:38;;;;;;;14.23;3.60;;;;;;;;;;5078508;28;20363;-37
2023/09/30 07:33:04;;;;;;;15.85;3.10;;;;;;;;;;5072627;28;20116;-38
2023/09/30 07:35:29;;;;;;;15.13;2.57;;;;;;;;;;5071198;28;20475;-38
2023/09/30 07:37:54;;;;;;;11.10;2.40;;;;;;;;;;5069615;28;20266;-38
2023/09/30 07:40:21;;;;;;;15.03;3.87;;;;;;;;;;5073119;28;20039;-38
2023/09/30 07:42:46;;;;;;;14.60;2.95;;;;;;;;;;5070152;28;20297;-38
2023/09/30 07:45:16;;;;;;;19.83;2.72;;;;;;;;;;5060457;28;20033;-38
2023/09/30 07:47:41;;;;;;;21.48;4.05;;;;;;;;;;5073948;28;20115;-38
2023/09/30 07:50:09;;;;;;;14.23;3.17;;;;;;;;;;5071969;28;22474;-38
2023/09/30 07:52:35;;;;;;;14.73;3.58;;;;;;;;;;5071082;28;20024;-37
2023/09/30 07:55:00;;;;;;;14.90;4.25;;;;;;;;;;5072174;28;20556;-37
2023/09/30 07:57:25;;;;;;;15.57;2.97;;;;;;;;;;5071228;28;20024;-38
2023/09/30 07:59:51;;;;;;;15.20;2.85;;;;;;;;;;5073093;28;20761;-38
2023/09/30 08:02:17;;;;;;;7.57;2.60;;;;;;;;;;5072391;28;20025;-38
2023/09/30 08:04:43;;;;;;;10.40;1.58;;;;;;;;;;5070470;28;20282;-38
2023/09/30 08:07:09;;;;;;;13.98;2.40;;;;;;;;;;5074051;28;20090;-38
2023/09/30 08:09:34;;;;;;;12.00;2.78;;;;;;;;;;5068475;28;20033;-38
2023/09/30 08:11:59;;;;;;;14.80;2.95;;;;;;;;;;5060444;28;20032;-38
2023/09/30 08:14:25;;;;;;;14.20;3.30;;;;;;;;;;5076990;28;20054;-38
2023/09/30 08:16:50;;;;;;;8.43;2.28;;;;;;;;;;5056914;28;20321;-38
2023/09/30 08:19:16;;;;;;;14.13;2.72;;;;;;;;;;5074311;28;20458;-38
2023/09/30 08:21:41;;;;;;;9.53;3.47;;;;;;;;;;5075689;28;20027;-38
2023/09/30 08:24:07;;;;;;;9.97;2.27;;;;;;;;;;5077017;28;20298;-38
2023/09/30 08:26:35;;;;;;;17.77;2.88;;;;;;;;;;5068222;28;20039;-38
2023/09/30 08:29:00;;;;;;;11.13;2.45;;;;;;;;;;5075848;28;20024;-38
2023/09/30 08:31:25;;;;;;;16.33;2.63;;;;;;;;;;5077787;28;20026;-38
2023/09/30 08:33:51;;;;;;;13.17;5.33;;;;;;;;;;5081515;28;20278;-38
2023/09/30 08:36:16;;;;;;;13.95;3.70;;;;;;;;;;5070768;28;20263;-38
2023/09/30 08:38:42;;;;;;;14.80;3.58;;;;;;;;;;5072486;28;20108;-38
2023/09/30 08:41:07;;;;;;;15.65;2.63;;;;;;;;;;5073732;28;21164;-38
2023/09/30 08:43:42;;;;;;;10.38;2.50;;;;;;;;;;5073258;28;21344;-38
2023/09/30 08:46:07;;;;;;;8.23;2.65;;;;;;;;;;5071538;28;20040;-38
2023/09/30 08:48:33;;;;;;;14.20;4.00;;;;;;;;;;5065148;28;20028;-38
2023/09/30 08:50:59;;;;;;;11.95;2.25;;;;;;;;;;5074022;28;20291;-38
2023/09/30 08:53:25;;;;;;;13.20;3.10;;;;;;;;;;5072204;28;20027;-38
2023/09/30 08:55:52;;;;;;;14.07;2.35;;;;;;;;;;5071165;28;20017;-38
2023/09/30 08:58:19;;;;;;;12.82;3.20;;;;;;;;;;5072749;28;20039;-38
2023/09/30 09:00:45;;;;;;;9.23;1.52;;;;;;;;;;5061919;28;20024;-38
2023/09/30 09:03:10;;;;;;;11.13;2.70;;;;;;;;;;5078399;28;20031;-38
2023/09/30 09:05:35;;;;;;;15.40;2.45;;;;;;;;;;5077938;28;20028;-38
2023/09/30 09:08:01;;;;;;;7.10;2.10;;;;;;;;;;5077768;28;20047;-38
2023/09/30 09:10:26;;;;;;;14.40;2.10;;;;;;;;;;5075055;28;20300;-38
2023/09/30 09:12:55;;;;;;;16.40;1.90;;;;;;;;;;5073803;28;20590;-39
2023/09/30 09:15:22;;;;;;;12.75;2.85;;;;;;;;;;5074717;28;20353;-38
2023/09/30 09:17:50;;;;;;;9.95;1.80;;;;;;;;;;5065613;28;20039;-38
2023/09/30 09:20:22;;;;;;;10.25;2.67;;;;;;;;;;5078393;28;20020;-38
2023/09/30 09:22:50;;;;;;;11.70;2.25;;;;;;;;;;5077939;28;20127;-37
2023/09/30 09:25:16;;;;;;;11.68;2.33;;;;;;;;;;5072358;28;20028;-38
2023/09/30 09:27:41;;;;;;;14.15;2.63;;;;;;;;;;5059730;28;20117;-38
2023/09/30 09:30:23;;;;;;;11.63;2.08;;;;;;;;;;5067565;28;20013;-38
2023/09/30 09:32:54;;;;;;;8.52;1.92;;;;;;;;;;5075341;28;20111;-38
2023/09/30 09:35:21;;;;;;;10.93;2.30;;;;;;;;;;5074893;28;20041;-38
2023/09/30 09:37:56;;;;;;;10.48;3.42;;;;;;;;;;5069551;28;20020;-38
2023/09/30 09:40:26;;;;;;;23.73;3.63;;;;;;;;;;5069338;28;20584;-38
2023/09/30 09:42:53;;;;;;;6.45;1.33;;;;;;;;;;5075200;28;20532;-38
2023/09/30 09:45:20;;;;;;;12.20;2.35;;;;;;;;;;5077069;28;20516;-38
2023/09/30 09:47:46;;;;;;;11.70;2.70;;;;;;;;;;5074331;28;20017;-38
2023/09/30 09:50:13;;;;;;;15.38;2.25;;;;;;;;;;5070162;28;20093;-38
2023/09/30 09:52:39;;;;;;;5.97;1.55;;;;;;;;;;5072892;28;20027;-38
2023/09/30 09:55:06;;;;;;;13.82;2.42;;;;;;;;;;5070273;28;20047;-38
2023/09/30 09:57:31;;;;;;;8.98;1.70;;;;;;;;;;5073072;28;20110;-38
2023/09/30 09:59:58;;;;;;;13.70;2.28;;;;;;;;;;5077334;28;20122;-38
2023/09/30 10:02:24;;;;;;;9.32;1.88;;;;;;;;;;5073249;28;20107;-38
2023/09/30 10:04:50;;;;;;;6.00;1.30;;;;;;;;;;5070168;28;20107;-38
2023/09/30 10:07:15;;;;;;;9.98;2.60;;;;;;;;;;5067282;28;20041;-38
2023/09/30 10:09:43;;;;;;;8.00;2.17;;;;;;;;;;5075138;28;20501;-38
2023/09/30 10:12:09;;;;;;;12.30;2.05;;;;;;;;;;5073861;28;20278;-38
2023/09/30 10:14:36;;;;;;;12.23;1.60;;;;;;;;;;5077209;28;20020;-38
2023/09/30 10:17:01;;;;;;;15.20;2.80;;;;;;;;;;5073584;28;20032;-38
2023/09/30 10:19:27;;;;;;;11.02;2.00;;;;;;;;;;5075561;28;20085;-38
2023/09/30 10:22:11;;;;;;;10.13;1.80;;;;;;;;;;5076498;28;20036;-37
2023/09/30 10:24:36;;;;;;;9.55;1.60;;;;;;;;;;5073568;28;20028;-37
2023/09/30 10:27:21;;;;;;;9.97;3.53;;;;;;;;;;5072474;28;20036;-38
2023/09/30 10:29:46;;;;;;;14.63;2.03;;;;;;;;;;5072507;28;20350;-37
2023/09/30 10:32:11;;;;;;;13.77;2.07;;;;;;;;;;5067985;28;20398;-37
2023/09/30 10:34:36;;;;;;;8.83;1.93;;;;;;;;;;5071435;28;20032;-38
2023/09/30 10:37:20;;;;;;;14.55;1.88;;;;;;;;;;5075335;28;20032;-38
2023/09/30 10:39:53;;;;;;;12.43;2.05;;;;;;;;;;5074841;28;20051;-38
2023/09/30 10:42:37;;;;;;;9.43;2.28;;;;;;;;;;5075214;28;20101;-38
2023/09/30 10:45:04;;;;;;;9.05;1.95;;;;;;;;;;5074871;28;20029;-37
2023/09/30 10:47:30;;;;;;;11.70;1.67;;;;;;;;;;5071940;28;20086;-38
2023/09/30 10:49:56;;;;;;;11.85;1.58;;;;;;;;;;5064813;28;20028;-37
2023/09/30 10:52:23;;;;;;;12.77;2.23;;;;;;;;;;5072815;28;20444;-37
2023/09/30 10:54:49;;;;;;;14.55;1.63;;;;;;;;;;5072166;28;20328;-37
2023/09/30 10:57:25;;;;;;;10.40;1.95;;;;;;;;;;5073965;28;20028;-37
2023/09/30 11:00:06;;;;;;;9.55;1.90;;;;;;;;;;5070846;28;20024;-38
2023/09/30 11:02:31;;;;;;;9.23;1.45;;;;;;;;;;5073407;28;20538;-38
2023/09/30 11:04:57;;;;;;;11.55;2.45;;;;;;;;;;5076627;28;20128;-37
2023/09/30 11:07:23;;;;;;;11.82;1.98;;;;;;;;;;5078634;28;20521;-38
2023/09/30 11:09:49;;;;;;;5.88;1.17;;;;;;;;;;5074109;28;20042;-37
2023/09/30 11:12:15;;;;;;;7.32;1.65;;;;;;;;;;5064087;28;20039;-38
2023/09/30 11:14:40;;;;;;;11.55;1.88;;;;;;;;;;5072963;28;20033;-37
2023/09/30 11:17:06;;;;;;;5.23;1.13;;;;;;;;;;5076085;28;20028;-39
2023/09/30 11:19:46;;;;;;;13.50;2.13;;;;;;;;;;5076520;28;20350;-38
2023/09/30 11:22:12;;;;;;;13.55;2.80;;;;;;;;;;5064832;28;20562;-38
2023/09/30 11:24:38;;;;;;;9.60;1.60;;;;;;;;;;5076516;28;20108;-38
2023/09/30 11:27:04;;;;;;;10.10;2.10;;;;;;;;;;5074839;28;20033;-38
2023/09/30 11:29:29;;;;;;;10.02;3.35;;;;;;;;;;5071570;28;20034;-38
2023/09/30 11:31:55;;;;;;;13.47;1.83;;;;;;;;;;5076901;28;20024;-38
2023/09/30 11:34:32;;;;;;;11.00;1.73;;;;;;;;;;5075071;28;20761;-37
2023/09/30 11:36:58;;;;;;;7.43;1.73;;;;;;;;;;5075836;28;20028;-37
2023/09/30 11:39:26;;;;;;;7.68;1.95;;;;;;;;;;5077908;28;20023;-38
2023/09/30 11:41:52;;;;;;;7.25;1.80;;;;;;;;;;5075607;28;20016;-38
2023/09/30 11:44:17;;;;;;;10.93;1.60;;;;;;;;;;5077363;28;20546;-38
2023/09/30 11:46:55;;;;;;;11.68;1.70;;;;;;;;;;5077652;28;20111;-38
2023/09/30 11:49:38;;;;;;;10.50;2.78;;;;;;;;;;5075084;28;20020;-38
2023/09/30 11:52:04;;;;;;;6.68;1.67;;;;;;;;;;5069988;28;20111;-38
2023/09/30 11:54:32;;;;;;;9.73;1.88;;;;;;;;;;5077704;28;20047;-38
2023/09/30 11:56:58;;;;;;;8.02;1.65;;;;;;;;;;5074876;28;20101;-38
2023/09/30 11:59:24;;;;;;;8.15;2.72;;;;;;;;;;5080837;28;20013;-38
2023/09/30 12:01:49;;;;;;;7.32;1.30;;;;;;;;;;5079389;28;20570;-38
2023/09/30 12:04:17;;;;;;;7.30;1.90;;;;;;;;;;5069650;28;20020;-38
2023/09/30 12:06:42;;;;;;;8.43;1.52;;;;;;;;;;5072924;28;20282;-38
2023/09/30 12:09:13;;;;;;;10.20;1.70;;;;;;;;;;5078764;28;20035;-38
2023/09/30 12:11:38;;;;;;;11.82;1.67;;;;;;;;;;5077768;28;20036;-38
2023/09/30 12:14:04;;;;;;;13.47;1.67;;;;;;;;;;5072409;28;20031;-38
2023/09/30 12:16:30;;;;;;;9.65;1.80;;;;;;;;;;5079319;28;20311;-38
2023/09/30 12:18:55;;;;;;;9.40;2.25;;;;;;;;;;5077966;28;20024;-38
2023/09/30 12:21:22;;;;;;;6.43;1.30;;;;;;;;;;5072862;28;20100;-38
2023/09/30 12:23:48;;;;;;;7.07;1.63;;;;;;;;;;5074713;28;20294;-38
2023/09/30 12:26:14;;;;;;;9.20;1.80;;;;;;;;;;5077843;28;20048;-38
2023/09/30 12:28:40;;;;;;;7.38;1.25;;;;;;;;;;5075240;28;20029;-38
2023/09/30 12:31:06;;;;;;;6.00;1.48;;;;;;;;;;5075858;28;20031;-38
2023/09/30 12:33:32;;;;;;;6.05;1.20;;;;;;;;;;5079281;28;20117;-38
2023/09/30 12:35:58;;;;;;;6.95;1.55;;;;;;;;;;5059854;28;20024;-38
2023/09/30 12:38:25;;;;;;;8.15;1.90;;;;;;;;;;5073799;28;20028;-38
2023/09/30 12:40:50;;;;;;;10.85;1.73;;;;;;;;;;5077745;28;20026;-38
2023/09/30 12:43:16;;;;;;;7.82;2.22;;;;;;;;;;5076886;28;20496;-38
2023/09/30 12:45:41;;;;;;;8.45;1.38;;;;;;;;;;5076955;28;20073;-38
2023/09/30 12:48:07;;;;;;;10.20;3.13;;;;;;;;;;5074069;28;20539;-38
2023/09/30 12:50:32;;;;;;;6.97;1.57;;;;;;;;;;5072572;28;20025;-38
2023/09/30 12:52:57;;;;;;;6.47;1.20;;;;;;;;;;5073734;28;20031;-38
2023/09/30 12:55:24;;;;;;;8.45;1.13;;;;;;;;;;5076713;28;20329;-38
2023/09/30 12:57:49;;;;;;;6.15;1.45;;;;;;;;;;5076739;28;20153;-38
2023/09/30 13:00:15;;;;;;;8.87;1.53;;;;;;;;;;5070905;28;20051;-38
2023/09/30 13:02:41;;;;;;;4.38;0.90;;;;;;;;;;5080949;28;20489;-38
2023/09/30 13:05:07;;;;;;;7.90;1.25;;;;;;;;;;5073627;28;20099;-38
2023/09/30 13:07:32;;;;;;;7.97;1.73;;;;;;;;;;5073490;28;20017;-38
2023/09/30 13:10:00;;;;;;;8.98;1.38;;;;;;;;;;5074244;28;20033;-38
2023/09/30 13:12:26;;;;;;;7.97;1.83;;;;;;;;;;5076238;28;20020;-38
2023/09/30 13:14:53;;;;;;;11.15;2.60;;;;;;;;;;5056518;28;20088;-38
2023/09/30 13:17:18;;;;;;;6.93;1.33;;;;;;;;;;5074975;28;20529;-38
2023/09/30 13:19:44;;;;;;;10.68;1.40;;;;;;;;;;5077226;28;20076;-38
2023/09/30 13:22:09;;;;;;;5.80;1.17;;;;;;;;;;5077722;28;20753;-38
2023/09/30 13:24:39;;;;;;;11.20;1.60;;;;;;;;;;5076070;28;20273;-38
2023/09/30 13:27:04;;;;;;;10.15;1.63;;;;;;;;;;5078703;28;20310;-38
2023/09/30 13:29:29;;;;;;;12.57;3.17;;;;;;;;;;5069845;28;20115;-38
2023/09/30 13:31:55;;;;;;;7.40;1.53;;;;;;;;;;5074239;28;20274;-39
2023/09/30 13:34:20;;;;;;;9.80;1.73;;;;;;;;;;5076026;28;20028;-38
2023/09/30 13:36:45;;;;;;;5.85;1.05;;;;;;;;;;5077970;28;20293;-38
2023/09/30 13:39:13;;;;;;;4.93;1.07;;;;;;;;;;5076090;28;20391;-38
2023/09/30 13:41:38;;;;;;;10.18;1.65;;;;;;;;;;5077208;28;20772;-38
2023/09/30 13:44:03;;;;;;;3.60;1.73;;;;;;;;;;5076056;28;20025;-38
2023/09/30 13:46:30;;;;;;;5.65;1.38;;;;;;;;;;5075179;28;20032;-38
2023/09/30 13:48:55;;;;;;;6.50;1.13;;;;;;;;;;5078188;28;20121;-38
2023/09/30 13:51:21;;;;;;;6.13;1.25;;;;;;;;;;5073593;28;20678;-38
2023/09/30 13:53:46;;;;;;;9.90;1.43;;;;;;;;;;5070653;28;20024;-38
2023/09/30 13:56:11;;;;;;;8.93;1.67;;;;;;;;;;5073151;28;20266;-39
2023/09/30 13:58:37;;;;;;;7.03;1.00;;;;;;;;;;5072971;28;20016;-38
2023/09/30 14:01:02;;;;;;;5.78;1.05;;;;;;;;;;5074476;28;20567;-38
2023/09/30 14:03:28;;;;;;;4.07;1.05;;;;;;;;;;5072234;28;20770;-38
2023/09/30 14:05:54;;;;;;;6.40;1.10;;;;;;;;;;5073787;28;20033;-38
2023/09/30 14:08:19;;;;;;;6.18;1.27;;;;;;;;;;5072119;28;20091;-38
2023/09/30 14:10:45;;;;;;;8.88;1.63;;;;;;;;;;5075683;28;20025;-38
2023/09/30 14:13:10;;;;;;;8.25;1.85;;;;;;;;;;5064719;28;20044;-38
2023/09/30 14:15:36;;;;;;;6.07;1.00;;;;;;;;;;5074764;28;20029;-38
2023/09/30 14:18:04;;;;;;;9.20;1.50;;;;;;;;;;5075753;28;20020;-38
2023/09/30 14:20:30;;;;;;;8.93;1.65;;;;;;;;;;5078118;28;20074;-38
2023/09/30 14:22:55;;;;;;;9.02;1.40;;;;;;;;;;5075042;28;20056;-38
2023/09/30 14:25:21;;;;;;;13.00;2.10;;;;;;;;;;5077368;28;20036;-38
2023/09/30 14:27:47;;;;;;;3.67;1.10;;;;;;;;;;5070722;28;20398;-38
2023/09/30 14:30:12;;;;;;;9.30;1.38;;;;;;;;;;5072449;28;20471;-38